Airfield :
LOGIN :

Register | Disclaimer

   EN    FR    IT 

 










Legend :    VFR   Marginal VFR   IFR   Intensive IFR   Very Intensive IFR
Visi :
Ceiling :
>= 8 km
>= 3000ft
5 to 8 km
1000 to 3000 ft
1500m to 5 km
500 to 1000 ft
800 to 1500m
200 to 500 ft
< 800m
< 200 ft
Symbols :   Thunderstorms  Fog  Heavy snow  Heavy precipitations  Wind > 20 kt
SIGMETs :     Misc.  Thunderstorms  Icing  Turbulence  Mountain Waves  Volcanic Ashes







- Airport Elevation : 909 ft
- IATA code : KSF


EDVK - Kassel Calden

CURRENT METAR :
  • 291050Z 29007KT 240V330 9999 SCT040 BKN057 08/M03 Q1018

EXPIRED METARs :
  • 291020Z 31008KT 260V340 9999 SCT040 BKN055 08/M02 Q1018
  • 290950Z 29009KT 250V320 9999 SCT043 SCT060 07/M02 Q1018
  • 290920Z 32007KT 270V340 9999 BKN033 BKN048 07/M01 Q1018
  • 290850Z 30008KT 9999 BKN028 BKN048 07/M01 Q1018
  • 290820Z 31008KT 9999 SCT019 BKN055 07/01 Q1017

TAF TAF EDVK
Valid from the 29 at 09:00 until the 29 at 18:00 UTC


290800Z 2909/2918 29007KT 9999 BKN040
BECMG 2916/2918 03004KT
No reported NOTAMs for that airfield.



MET'MAP, your aeronautical weather chart ! - Copyright ORBIFLY December 2007 - Disclaimer

ORBIFLY MET'MAP TEAM :

Programming & Development : Alexandra Zaïnal
Concept & Development : Baudouin d'Aumeries
Co-Development & Prog : Marc-Olivier Méhu
Technical & hardware support : Manuel Goepfert

Contact : metmap@orbifly.com




SOURCES & CREDITS :

   NOAA